.
WxDataArchive / Data Records for 2014-12-23
2014-12-22 December 2014 2014-12-24

Data Records for Tuesday, 23 December 2014

Time	Temp	Chill	HIndex	Humid	Dewpt	 Wind 	HiWind	WindDir	Rain 	Barom
-----	----	-----	------	-----	-----	------	------	-------	-----	-----
00:00	37.8	37.8	37.8	91	35.4	3	9	90	0.00	29.717 
00:05	37.8	37.8	37.8	91	35.4	3	7	90	0.00	29.717 
00:10	37.8	37.8	37.8	91	35.4	3	7	90	0.00	29.717 
00:15	37.9	37.9	37.9	91	35.5	3	6	68	0.00	29.717 
00:20	37.9	37.9	37.9	91	35.5	2	5	112	0.00	29.717 
00:25	37.9	37.9	37.9	91	35.5	2	4	68	0.00	29.717 
00:30	38.0	38.0	38.0	91	35.6	2	5	68	0.00	29.721 
00:35	38.0	38.0	38.0	91	35.6	2	5	90	0.00	29.721 
00:40	38.0	38.0	38.0	91	35.6	2	7	90	0.00	29.721 
00:45	38.2	38.2	38.2	91	35.8	3	6	90	0.00	29.716 
00:50	38.2	38.2	38.2	90	35.5	2	6	112	0.00	29.716 
00:55	38.2	38.2	38.2	90	35.5	3	7	112	0.00	29.716 
01:00	38.3	38.3	38.3	90	35.6	2	6	90	0.00	29.708 
01:05	38.3	38.3	38.3	90	35.6	3	6	90	0.00	29.708 
01:10	38.3	38.3	38.3	90	35.6	2	4	90	0.00	29.708 
01:15	38.3	38.3	38.3	90	35.6	2	7	90	0.00	29.699 
01:20	38.3	38.3	38.3	90	35.6	2	5	68	0.00	29.699 
01:25	38.5	38.5	38.5	90	35.8	3	5	90	0.00	29.699 
01:30	38.5	38.5	38.5	90	35.8	2	6	90	0.00	29.688 
01:35	38.6	38.6	38.6	90	35.9	2	6	90	0.00	29.688 
01:40	38.6	38.6	38.6	90	35.9	2	4	90	0.00	29.688 
01:45	38.8	38.8	38.8	90	36.1	2	4	90	0.00	29.688 
01:50	38.8	38.8	38.8	90	36.1	2	4	90	0.00	29.688 
01:55	38.8	38.8	38.8	90	36.1	2	6	90	0.00	29.688 
02:00	38.8	38.8	38.8	90	36.1	1	3	90	0.00	29.685 
02:05	38.9	38.9	38.9	90	36.2	2	4	90	0.00	29.685 
02:10	38.9	38.9	38.9	90	36.2	1	3	90	0.00	29.685 
02:15	38.9	38.9	38.9	91	36.5	1	4	90	0.00	29.685 
02:20	38.9	38.9	38.9	91	36.5	1	3	90	0.00	29.685 
02:25	39.1	39.1	39.1	91	36.7	1	3	90	0.00	29.685 
02:30	39.1	39.1	39.1	91	36.7	1	3	90	0.00	29.683 
02:35	39.1	39.1	39.1	91	36.7	0	3	90	0.00	29.683 
02:40	39.1	39.1	39.1	91	36.7	1	4	90	0.00	29.683 
02:45	39.2	39.2	39.2	91	36.8	1	3	90	0.00	29.685 
02:50	39.2	39.2	39.2	92	37.1	0	3	90	0.00	29.685 
02:55	39.3	39.3	39.3	92	37.2	1	2	90	0.00	29.685 
03:00	39.3	39.3	39.3	92	37.2	1	3	90	0.00	29.688 
03:05	39.5	39.5	39.5	92	37.4	2	4	90	0.00	29.688 
03:10	39.5	39.5	39.5	92	37.4	1	4	90	0.00	29.688 
03:15	39.6	39.6	39.6	92	37.5	1	3	90	0.00	29.680 
03:20	39.8	39.8	39.8	92	37.7	2	4	90	0.00	29.680 
03:25	39.9	39.9	39.9	92	37.8	1	5	90	0.00	29.680 
03:30	39.9	39.9	39.9	92	37.8	1	3	90	0.00	29.675 
03:35	40.1	40.1	40.1	92	38.0	1	4	90	0.00	29.675 
03:40	40.2	40.2	40.2	92	38.1	1	4	90	0.00	29.675 
03:45	40.2	40.2	40.2	92	38.1	1	4	90	0.00	29.677 
03:50	40.3	40.3	40.3	92	38.2	1	3	90	0.00	29.677 
03:55	40.5	40.5	40.5	92	38.4	1	3	90	0.00	29.677 
04:00	40.6	40.6	40.6	92	38.5	1	3	90	0.00	29.678 
04:05	40.9	40.9	40.9	92	38.8	1	3	90	0.00	29.678 
04:10	41.1	41.1	41.1	92	39.0	1	2	90	0.00	29.678 
04:15	41.2	41.2	41.2	92	39.1	0	3	90	0.00	29.678 
04:20	41.3	41.3	41.3	93	39.4	0	2	90	0.00	29.678 
04:25	41.5	41.5	41.5	93	39.6	0	2	90	0.00	29.678 
04:30	41.6	41.6	41.6	93	39.7	0	2	90	0.00	29.680 
04:35	41.8	41.8	41.8	93	39.9	0	2	90	0.00	29.680 
04:40	41.8	41.8	41.8	93	39.9	0	1	90	0.00	29.680 
04:45	41.9	41.9	41.9	93	40.0	0	0	---	0.00	29.680 
04:50	41.9	41.9	41.9	93	40.0	0	2	90	0.00	29.680 
04:55	41.9	41.9	41.9	93	40.0	0	0	---	0.00	29.680 
05:00	42.2	42.2	42.2	93	40.3	0	1	90	0.00	29.680 
05:05	42.5	42.5	42.5	93	40.6	0	3	90	0.00	29.680 
05:10	43.1	43.1	43.1	93	41.2	1	3	90	0.00	29.680 
05:15	43.8	43.8	43.8	93	41.9	1	4	90	0.00	29.677 
05:20	44.1	44.1	44.1	93	42.2	1	4	90	0.00	29.677 
05:25	44.3	44.3	44.3	93	42.4	1	4	90	0.00	29.677 
05:30	44.3	44.3	44.3	92	42.1	1	4	90	0.00	29.675 
05:35	44.5	44.5	44.5	92	42.3	1	3	90	0.00	29.675 
05:40	44.5	44.5	44.5	92	42.3	1	3	90	0.00	29.675 
05:45	44.5	44.5	44.5	92	42.3	0	2	90	0.00	29.667 
05:50	44.5	44.5	44.5	92	42.3	0	3	90	0.00	29.667 
05:55	44.6	44.6	44.6	92	42.4	1	4	90	0.00	29.667 
06:00	44.6	44.6	44.6	92	42.4	1	2	90	0.00	29.674 
06:05	44.6	44.6	44.6	93	42.7	0	3	90	0.00	29.674 
06:10	44.8	44.8	44.8	93	42.9	0	1	90	0.00	29.674 
06:15	44.8	44.8	44.8	93	42.9	0	2	90	0.00	29.683 
06:20	44.8	44.8	44.8	93	42.9	0	1	90	0.00	29.683 
06:25	44.8	44.8	44.8	93	42.9	0	2	90	0.00	29.683 
06:30	44.9	44.9	44.9	93	43.0	0	2	90	0.00	29.688 
06:35	44.9	44.9	44.9	93	43.0	0	2	90	0.00	29.688 
06:40	45.1	45.1	45.1	93	43.2	0	3	90	0.00	29.688 
06:45	45.1	45.1	45.1	94	43.5	0	2	90	0.00	29.690 
06:50	45.2	45.2	45.2	94	43.6	0	1	90	0.00	29.690 
06:55	45.4	45.4	45.4	94	43.8	1	3	90	0.00	29.690 
07:00	45.5	45.5	45.5	94	43.9	0	3	90	0.00	29.691 
07:05	45.8	45.8	45.8	94	44.2	0	2	90	0.00	29.691 
07:10	46.0	46.0	46.0	94	44.4	0	3	90	0.00	29.691 
07:15	46.0	46.0	46.0	94	44.4	0	3	90	0.00	29.703 
07:20	46.1	46.1	46.1	94	44.5	1	3	90	0.00	29.703 
07:25	46.2	46.2	46.2	94	44.6	1	4	112	0.00	29.703 
07:30	46.4	46.4	46.4	94	44.8	1	4	90	0.00	29.701 
07:35	46.4	46.4	46.4	94	44.8	1	3	90	0.00	29.701 
07:40	46.5	46.5	46.5	94	44.9	1	2	112	0.00	29.701 
07:45	46.7	46.7	46.7	94	45.1	0	4	112	0.00	29.705 
07:50	46.7	46.7	46.7	94	45.1	1	4	112	0.00	29.705 
07:55	46.8	46.8	46.8	94	45.2	2	5	90	0.00	29.705 
08:00	46.8	46.8	46.8	94	45.2	1	3	112	0.00	29.715 
08:05	47.0	47.0	47.0	94	45.4	1	4	112	0.00	29.715 
08:10	47.0	47.0	47.0	94	45.4	1	3	112	0.00	29.715 
08:15	47.0	47.0	47.0	94	45.4	1	3	112	0.00	29.717 
08:20	47.0	47.0	47.0	94	45.4	1	5	112	0.00	29.717 
08:25	47.0	47.0	47.0	94	45.4	0	3	112	0.00	29.717 
08:30	47.1	47.1	47.1	94	45.5	0	2	112	0.00	29.719 
08:35	47.1	47.1	47.1	94	45.5	0	2	112	0.00	29.719 
08:40	47.1	47.1	47.1	94	45.5	0	3	112	0.00	29.719 
08:45	47.1	47.1	47.1	94	45.5	0	3	112	0.00	29.723 
08:50	47.3	47.3	47.3	94	45.7	1	4	112	0.00	29.723 
08:55	47.3	47.3	47.3	94	45.7	1	3	112	0.00	29.723 
09:00	47.4	47.4	47.4	94	45.8	0	3	135	0.00	29.725 
09:05	47.4	47.4	47.4	94	45.8	0	3	135	0.00	29.725 
09:10	47.6	47.6	47.6	94	46.0	1	4	112	0.00	29.725 
09:15	47.6	47.6	47.6	94	46.0	1	3	112	0.00	29.724 
09:20	47.7	47.7	47.7	94	46.1	1	3	112	0.00	29.724 
09:25	47.7	47.7	47.7	94	46.1	1	3	112	0.00	29.724 
09:30	47.9	47.9	47.9	94	46.3	1	4	112	0.00	29.721 
09:35	47.9	47.9	47.9	94	46.3	0	3	112	0.00	29.721 
09:40	48.0	48.0	48.0	94	46.4	0	2	112	0.00	29.721 
09:45	48.2	48.2	48.2	94	46.6	0	2	112	0.00	29.733 
09:50	48.3	48.3	48.3	94	46.7	1	2	135	0.00	29.733 
09:55	48.5	48.5	48.5	94	46.9	1	3	135	0.00	29.733 
10:00	48.6	48.6	48.6	94	47.0	0	2	135	0.00	29.741 
10:05	48.8	48.8	48.8	94	47.1	1	5	135	0.00	29.741 
10:10	48.9	48.9	48.9	94	47.2	1	5	90	0.00	29.741 
10:15	49.2	49.2	49.2	94	47.5	1	4	90	0.00	29.748 
10:20	49.4	49.4	49.4	94	47.7	1	3	112	0.00	29.748 
10:25	49.6	49.6	49.6	94	47.9	1	3	90	0.00	29.748 
10:30	49.8	49.8	49.8	94	48.1	1	6	90	0.00	29.756 
10:35	49.9	49.9	49.9	94	48.2	0	2	90	0.00	29.756 
10:40	50.2	50.2	50.2	93	48.3	0	2	90	0.00	29.756 
10:45	50.2	50.2	50.2	93	48.3	0	2	90	0.00	29.762 
10:50	50.4	50.4	50.4	93	48.5	0	3	90	0.00	29.762 
10:55	50.5	50.5	50.5	93	48.6	1	3	90	0.00	29.762 
11:00	50.5	50.5	50.5	93	48.6	1	3	90	0.00	29.761 
11:05	50.7	50.7	50.7	92	48.5	1	4	90	0.00	29.761 
11:10	50.7	50.7	50.7	92	48.5	1	4	90	0.00	29.761 
11:15	50.8	50.8	50.8	92	48.6	0	3	90	0.00	29.763 
11:20	51.0	51.0	51.0	92	48.8	0	3	90	0.00	29.763 
11:25	51.0	51.0	51.0	92	48.8	0	2	90	0.00	29.763 
11:30	51.0	51.0	51.0	92	48.8	0	3	90	0.00	29.763 
11:35	51.0	51.0	51.0	92	48.8	1	4	90	0.00	29.763 
11:40	51.0	51.0	51.0	91	48.5	0	2	90	0.00	29.763 
11:45	51.0	51.0	51.0	91	48.5	0	3	90	0.00	29.763 
11:50	51.1	51.1	51.1	91	48.6	0	1	90	0.00	29.763 
11:55	51.1	51.1	51.1	91	48.6	0	2	90	0.00	29.763 
12:00	51.3	51.3	51.3	91	48.8	0	1	90	0.00	29.762 
12:05	51.6	51.6	51.6	91	49.1	0	2	90	0.00	29.762 
12:10	51.7	51.7	51.7	91	49.2	0	2	90	0.00	29.762 
12:15	52.0	52.0	52.0	91	49.5	0	2	90	0.00	29.752 
12:20	52.2	52.2	52.2	91	49.7	0	2	90	0.00	29.752 
12:25	52.5	52.5	52.5	90	49.7	0	2	22	0.00	29.752 
12:30	52.8	52.8	52.8	89	49.6	0	4	315	0.00	29.744 
12:35	52.9	52.9	52.9	89	49.7	0	2	22	0.00	29.744 
12:40	52.9	52.9	52.9	88	49.4	0	2	338	0.00	29.744 
12:45	52.9	52.9	52.9	88	49.4	1	4	248	0.00	29.737 
12:50	52.9	52.9	52.9	87	49.1	0	4	270	0.00	29.737 
12:55	53.3	53.3	53.3	87	49.5	1	2	270	0.00	29.737 
13:00	53.5	53.5	53.5	86	49.4	1	3	270	0.00	29.731 
13:05	53.8	53.8	53.8	85	49.4	1	3	270	0.00	29.731 
13:10	54.2	54.2	54.2	84	49.5	1	3	270	0.00	29.731 
13:15	54.5	54.5	54.5	81	48.8	1	4	248	0.00	29.728 
13:20	54.8	54.8	54.8	79	48.4	1	4	292	0.00	29.728 
13:25	55.0	55.0	55.0	78	48.3	1	5	248	0.00	29.728 
13:30	55.1	55.1	55.1	78	48.4	0	2	248	0.00	29.730 
13:35	55.1	55.1	55.1	78	48.4	0	3	248	0.00	29.730 
13:40	55.0	55.0	55.0	77	47.9	1	3	248	0.00	29.730 
13:45	55.1	55.1	55.1	78	48.4	0	3	248	0.00	29.726 
13:50	55.1	55.1	55.1	76	47.7	1	4	248	0.00	29.726 
13:55	55.3	55.3	55.3	76	47.9	0	3	248	0.00	29.726 
14:00	55.7	55.7	55.7	76	48.3	1	5	248	0.00	29.725 
14:05	56.0	56.0	56.0	76	48.5	0	3	248	0.00	29.725 
14:10	56.3	56.3	56.3	75	48.5	0	2	248	0.00	29.725 
14:15	56.5	56.5	56.5	74	48.3	1	3	248	0.00	29.724 
14:20	56.0	56.0	56.0	73	47.5	1	3	248	0.00	29.724 
14:25	55.7	55.7	55.7	75	47.9	0	2	248	0.00	29.724 
14:30	55.6	55.6	55.6	74	47.4	1	3	292	0.00	29.723 
14:35	55.4	55.4	55.4	73	46.9	1	3	292	0.00	29.723 
14:40	55.3	55.3	55.3	73	46.8	0	2	292	0.00	29.723 
14:45	55.3	55.3	55.3	74	47.2	0	1	292	0.00	29.726 
14:50	55.6	55.6	55.6	72	46.7	1	4	270	0.00	29.726 
14:55	55.6	55.6	55.6	71	46.3	1	4	270	0.00	29.726 
15:00	55.6	55.6	55.6	71	46.3	0	3	225	0.00	29.726 
15:05	55.6	55.6	55.6	70	46.0	1	3	225	0.00	29.726 
15:10	55.4	55.4	55.4	70	45.8	0	3	248	0.00	29.726 
15:15	55.6	55.6	55.6	70	46.0	1	3	270	0.00	29.733 
15:20	55.7	55.7	55.7	69	45.7	1	4	248	0.00	29.733 
15:25	55.6	55.6	55.6	69	45.6	1	4	248	0.00	29.733 
15:30	55.4	55.4	55.4	69	45.4	0	2	248	0.00	29.743 
15:35	55.3	55.3	55.3	71	46.1	1	5	248	0.00	29.743 
15:40	55.3	55.3	55.3	71	46.1	0	2	248	0.00	29.743 
15:45	55.1	55.1	55.1	71	45.9	0	1	248	0.00	29.752 
15:50	55.1	55.1	55.1	71	45.9	0	1	248	0.00	29.752 
15:55	55.0	55.0	55.0	70	45.4	0	1	248	0.00	29.752 
16:00	54.7	54.7	54.7	70	45.1	0	2	248	0.00	29.752 
16:05	54.5	54.5	54.5	70	44.9	0	1	248	0.00	29.752 
16:10	54.5	54.5	54.5	70	44.9	0	1	248	0.00	29.752 
16:15	54.4	54.4	54.4	71	45.2	0	2	248	0.00	29.750 
16:20	54.4	54.4	54.4	71	45.2	0	2	248	0.00	29.750 
16:25	54.2	54.2	54.2	71	45.0	0	1	248	0.00	29.750 
16:30	54.1	54.1	54.1	71	44.9	0	1	248	0.00	29.745 
16:35	53.9	53.9	53.9	71	44.7	0	1	248	0.00	29.745 
16:40	53.8	53.8	53.8	72	45.0	0	1	248	0.00	29.745 
16:45	53.6	53.6	53.6	72	44.8	0	1	248	0.00	29.745 
16:50	53.3	53.3	53.3	73	44.9	0	1	248	0.00	29.745 
16:55	53.2	53.2	53.2	73	44.8	0	1	248	0.00	29.745 
17:00	52.9	52.9	52.9	73	44.5	0	2	248	0.00	29.750 
17:05	52.8	52.8	52.8	73	44.4	0	1	248	0.00	29.750 
17:10	52.5	52.5	52.5	73	44.1	0	0	---	0.00	29.750 
17:15	52.0	52.0	52.0	74	44.0	0	0	---	0.00	29.751 
17:20	51.6	51.6	51.6	75	43.9	0	0	---	0.00	29.751 
17:25	51.1	51.1	51.1	75	43.5	0	0	---	0.00	29.751 
17:30	50.7	50.7	50.7	77	43.8	0	0	---	0.00	29.741 
17:35	50.2	50.2	50.2	77	43.3	0	0	---	0.00	29.741 
17:40	49.8	49.8	49.8	78	43.2	0	0	---	0.00	29.741 
17:45	49.6	49.6	49.6	79	43.4	0	0	---	0.00	29.757 
17:50	49.4	49.4	49.4	79	43.2	0	0	---	0.00	29.757 
17:55	49.2	49.2	49.2	80	43.3	0	0	---	0.00	29.757 
18:00	49.1	49.1	49.1	81	43.5	0	0	---	0.00	29.759 
18:05	49.1	49.1	49.1	81	43.5	0	0	---	0.00	29.759 
18:10	48.9	48.9	48.9	81	43.3	0	0	---	0.00	29.759 
18:15	48.8	48.8	48.8	81	43.2	0	0	---	0.00	29.760 
18:20	48.6	48.6	48.6	82	43.4	0	0	---	0.00	29.760 
18:25	48.6	48.6	48.6	82	43.4	0	0	---	0.00	29.760 
18:30	48.5	48.5	48.5	82	43.3	0	0	---	0.00	29.767 
18:35	48.3	48.3	48.3	83	43.4	0	0	---	0.00	29.767 
18:40	48.2	48.2	48.2	83	43.3	0	0	---	0.00	29.767 
18:45	48.0	48.0	48.0	83	43.1	0	0	---	0.00	29.774 
18:50	48.0	48.0	48.0	84	43.4	0	0	---	0.00	29.774 
18:55	48.0	48.0	48.0	84	43.4	0	0	---	0.00	29.774 
19:00	48.0	48.0	48.0	84	43.4	0	0	---	0.00	29.774 
19:05	48.0	48.0	48.0	84	43.4	0	0	---	0.00	29.774 
19:10	47.9	47.9	47.9	84	43.3	0	0	---	0.00	29.774 
19:15	47.7	47.7	47.7	85	43.4	0	0	---	0.00	29.760 
19:20	47.7	47.7	47.7	85	43.4	0	0	---	0.00	29.760 
19:25	47.6	47.6	47.6	85	43.3	0	0	---	0.00	29.760 
19:30	47.4	47.4	47.4	86	43.4	0	0	---	0.00	29.759 
19:35	47.3	47.3	47.3	86	43.3	0	0	---	0.00	29.759 
19:40	47.3	47.3	47.3	86	43.3	0	0	---	0.00	29.759 
19:45	47.1	47.1	47.1	86	43.1	0	0	---	0.00	29.751 
19:50	47.1	47.1	47.1	87	43.4	0	0	---	0.00	29.751 
19:55	47.1	47.1	47.1	87	43.4	0	0	---	0.00	29.751 
20:00	47.1	47.1	47.1	88	43.7	0	0	---	0.00	29.741 
20:05	47.1	47.1	47.1	88	43.7	0	0	---	0.00	29.741 
20:10	47.1	47.1	47.1	88	43.7	0	0	---	0.00	29.741 
20:15	47.1	47.1	47.1	88	43.7	0	0	---	0.00	29.739 
20:20	47.1	47.1	47.1	88	43.7	0	0	---	0.00	29.739 
20:25	47.1	47.1	47.1	88	43.7	0	0	---	0.00	29.739 
20:30	47.1	47.1	47.1	89	44.0	0	0	---	0.00	29.736 
20:35	47.3	47.3	47.3	89	44.2	0	0	---	0.00	29.736 
20:40	47.3	47.3	47.3	89	44.2	0	0	---	0.00	29.736 
20:45	47.3	47.3	47.3	89	44.2	0	0	---	0.00	29.743 
20:50	47.3	47.3	47.3	89	44.2	0	0	---	0.00	29.743 
20:55	47.3	47.3	47.3	89	44.2	0	0	---	0.00	29.743 
21:00	47.3	47.3	47.3	89	44.2	0	0	---	0.00	29.748 
21:05	47.4	47.4	47.4	89	44.3	0	0	---	0.00	29.748 
21:10	47.4	47.4	47.4	89	44.3	0	0	---	0.00	29.748 
21:15	47.4	47.4	47.4	89	44.3	0	0	---	0.00	29.743 
21:20	47.4	47.4	47.4	89	44.3	0	1	248	0.00	29.743 
21:25	47.3	47.3	47.3	89	44.2	0	0	---	0.00	29.743 
21:30	47.3	47.3	47.3	89	44.2	0	0	---	0.00	29.741 
21:35	47.3	47.3	47.3	89	44.2	0	0	---	0.00	29.741 
21:40	47.3	47.3	47.3	89	44.2	0	0	---	0.00	29.741 
21:45	47.3	47.3	47.3	89	44.2	0	1	248	0.00	29.728 
21:50	47.3	47.3	47.3	89	44.2	0	0	---	0.00	29.728 
21:55	47.1	47.1	47.1	89	44.0	0	0	---	0.00	29.728 
22:00	47.0	47.0	47.0	89	43.9	0	0	---	0.00	29.726 
22:05	47.0	47.0	47.0	89	43.9	0	0	---	0.00	29.726 
22:10	46.8	46.8	46.8	89	43.7	0	0	---	0.00	29.726 
22:15	46.8	46.8	46.8	90	44.0	0	0	---	0.00	29.724 
22:20	46.8	46.8	46.8	90	44.0	0	0	---	0.00	29.724 
22:25	46.8	46.8	46.8	90	44.0	0	1	248	0.00	29.724 
22:30	46.8	46.8	46.8	90	44.0	0	0	---	0.00	29.718 
22:35	46.8	46.8	46.8	89	43.7	0	0	---	0.00	29.718 
22:40	46.7	46.7	46.7	89	43.6	0	0	---	0.00	29.718 
22:45	46.7	46.7	46.7	89	43.6	0	1	248	0.00	29.710 
22:50	46.7	46.7	46.7	89	43.6	0	2	248	0.00	29.710 
22:55	46.7	46.7	46.7	89	43.6	0	1	248	0.00	29.710 
23:00	46.7	46.7	46.7	88	43.3	0	1	248	0.00	29.697 
23:05	46.7	46.7	46.7	88	43.3	0	1	248	0.01	29.697 
23:10	46.7	46.7	46.7	88	43.3	0	1	248	0.00	29.697 
23:15	46.5	46.5	46.5	88	43.1	0	0	---	0.00	29.686 
23:20	46.5	46.5	46.5	88	43.1	0	1	248	0.00	29.686 
23:25	46.4	46.4	46.4	89	43.3	0	1	248	0.00	29.686 
23:30	46.4	46.4	46.4	89	43.3	0	0	---	0.01	29.692 
23:35	46.2	46.2	46.2	89	43.1	0	1	248	0.00	29.692 
23:40	46.2	46.2	46.2	89	43.1	0	1	248	0.00	29.692 
23:45	46.2	46.2	46.2	90	43.4	0	1	248	0.00	29.693 
23:50	46.1	46.1	46.1	90	43.3	0	1	248	0.00	29.693 
23:55	46.0	46.0	46.0	90	43.2	0	1	248	0.00	29.693 

CoCoRaHS
IN-AL-39
A2 Web Hosting
Creative Commons License
GoDaddy
search engine by freefind advanced

loaded 2018-11-13 18:03:00 • last modified 2010-11-18 10:43:29
Privacy PolicyDisclaimer
• wx.awcolley.com is powered by PmWiki v.2002016 •
• all content (unless otherwise noted) © 2018 A W Colley